sensor_id;sensor_type;location;lat;lon;timestamp;P1;durP1;ratioP1;P2;durP2;ratioP2
18881;SDS011;9573;50.948;11.600;2023-12-22T00:01:55;20.17;;;3.30;;
18881;SDS011;9573;50.948;11.600;2023-12-22T00:04:24;28.47;;;3.57;;
18881;SDS011;9573;50.948;11.600;2023-12-22T00:06:51;12.23;;;2.57;;
18881;SDS011;9573;50.948;11.600;2023-12-22T00:09:20;9.77;;;2.03;;
18881;SDS011;9573;50.948;11.600;2023-12-22T00:11:47;7.93;;;1.87;;
18881;SDS011;9573;50.948;11.600;2023-12-22T00:14:14;28.73;;;3.80;;
18881;SDS011;9573;50.948;11.600;2023-12-22T00:16:41;18.37;;;3.10;;
18881;SDS011;9573;50.948;11.600;2023-12-22T00:19:08;8.83;;;2.33;;
18881;SDS011;9573;50.948;11.600;2023-12-22T00:21:36;23.17;;;3.10;;
18881;SDS011;9573;50.948;11.600;2023-12-22T00:24:04;25.87;;;3.70;;
18881;SDS011;9573;50.948;11.600;2023-12-22T00:26:32;24.87;;;3.50;;
18881;SDS011;9573;50.948;11.600;2023-12-22T00:28:59;13.17;;;2.47;;
18881;SDS011;9573;50.948;11.600;2023-12-22T00:31:26;6.93;;;1.27;;
18881;SDS011;9573;50.948;11.600;2023-12-22T00:33:53;17.40;;;3.10;;
18881;SDS011;9573;50.948;11.600;2023-12-22T00:36:20;28.60;;;3.73;;
18881;SDS011;9573;50.948;11.600;2023-12-22T00:38:50;22.90;;;3.07;;
18881;SDS011;9573;50.948;11.600;2023-12-22T00:41:18;22.30;;;3.40;;
18881;SDS011;9573;50.948;11.600;2023-12-22T00:43:45;25.93;;;3.47;;
18881;SDS011;9573;50.948;11.600;2023-12-22T00:46:12;21.33;;;2.93;;
18881;SDS011;9573;50.948;11.600;2023-12-22T00:48:40;24.97;;;3.10;;
18881;SDS011;9573;50.948;11.600;2023-12-22T00:51:07;32.57;;;4.43;;
18881;SDS011;9573;50.948;11.600;2023-12-22T00:53:34;19.03;;;2.63;;
18881;SDS011;9573;50.948;11.600;2023-12-22T00:56:03;28.00;;;3.47;;
18881;SDS011;9573;50.948;11.600;2023-12-22T00:58:31;8.27;;;1.77;;
18881;SDS011;9573;50.948;11.600;2023-12-22T01:00:58;27.90;;;3.07;;
18881;SDS011;9573;50.948;11.600;2023-12-22T01:03:25;13.77;;;2.27;;
18881;SDS011;9573;50.948;11.600;2023-12-22T01:05:52;27.67;;;3.80;;
18881;SDS011;9573;50.948;11.600;2023-12-22T01:08:19;27.97;;;3.87;;
18881;SDS011;9573;50.948;11.600;2023-12-22T01:10:46;20.30;;;2.63;;
18881;SDS011;9573;50.948;11.600;2023-12-22T01:13:15;27.50;;;3.40;;
18881;SDS011;9573;50.948;11.600;2023-12-22T01:15:42;23.60;;;3.50;;
18881;SDS011;9573;50.948;11.600;2023-12-22T01:18:09;35.20;;;3.77;;
18881;SDS011;9573;50.948;11.600;2023-12-22T01:20:38;29.90;;;3.57;;
18881;SDS011;9573;50.948;11.600;2023-12-22T01:23:05;31.93;;;3.60;;
18881;SDS011;9573;50.948;11.600;2023-12-22T01:25:32;24.70;;;3.23;;
18881;SDS011;9573;50.948;11.600;2023-12-22T01:27:59;23.00;;;3.37;;
18881;SDS011;9573;50.948;11.600;2023-12-22T01:30:28;23.73;;;3.00;;
18881;SDS011;9573;50.948;11.600;2023-12-22T01:32:55;18.77;;;2.13;;
18881;SDS011;9573;50.948;11.600;2023-12-22T01:35:22;21.57;;;3.10;;
18881;SDS011;9573;50.948;11.600;2023-12-22T01:37:49;22.20;;;3.17;;
18881;SDS011;9573;50.948;11.600;2023-12-22T01:40:16;23.17;;;2.83;;
18881;SDS011;9573;50.948;11.600;2023-12-22T01:42:43;24.23;;;2.83;;
18881;SDS011;9573;50.948;11.600;2023-12-22T01:45:10;20.83;;;3.00;;
18881;SDS011;9573;50.948;11.600;2023-12-22T01:47:39;25.83;;;3.33;;
18881;SDS011;9573;50.948;11.600;2023-12-22T01:50:07;24.90;;;3.57;;
18881;SDS011;9573;50.948;11.600;2023-12-22T01:52:36;20.30;;;2.87;;
18881;SDS011;9573;50.948;11.600;2023-12-22T01:55:04;27.20;;;2.90;;
18881;SDS011;9573;50.948;11.600;2023-12-22T01:57:33;20.07;;;3.20;;
18881;SDS011;9573;50.948;11.600;2023-12-22T02:00:01;18.70;;;2.70;;
18881;SDS011;9573;50.948;11.600;2023-12-22T02:02:29;21.30;;;3.20;;
18881;SDS011;9573;50.948;11.600;2023-12-22T02:04:58;26.17;;;3.03;;
18881;SDS011;9573;50.948;11.600;2023-12-22T02:07:26;15.87;;;1.87;;
18881;SDS011;9573;50.948;11.600;2023-12-22T02:09:54;8.93;;;1.60;;
18881;SDS011;9573;50.948;11.600;2023-12-22T02:12:21;22.20;;;3.13;;
18881;SDS011;9573;50.948;11.600;2023-12-22T02:14:48;22.00;;;3.10;;
18881;SDS011;9573;50.948;11.600;2023-12-22T02:17:18;11.97;;;1.90;;
18881;SDS011;9573;50.948;11.600;2023-12-22T02:19:51;17.40;;;2.30;;
18881;SDS011;9573;50.948;11.600;2023-12-22T02:22:22;5.20;;;1.47;;
18881;SDS011;9573;50.948;11.600;2023-12-22T02:24:50;21.30;;;3.07;;
18881;SDS011;9573;50.948;11.600;2023-12-22T02:27:23;11.00;;;1.80;;
18881;SDS011;9573;50.948;11.600;2023-12-22T02:29:59;9.93;;;2.10;;
18881;SDS011;9573;50.948;11.600;2023-12-22T02:32:34;26.90;;;3.13;;
18881;SDS011;9573;50.948;11.600;2023-12-22T02:35:05;19.33;;;2.97;;
18881;SDS011;9573;50.948;11.600;2023-12-22T02:37:36;9.73;;;1.67;;
18881;SDS011;9573;50.948;11.600;2023-12-22T02:40:08;16.87;;;2.03;;
18881;SDS011;9573;50.948;11.600;2023-12-22T02:42:37;17.33;;;2.20;;
18881;SDS011;9573;50.948;11.600;2023-12-22T02:45:05;5.07;;;1.03;;
18881;SDS011;9573;50.948;11.600;2023-12-22T02:47:33;16.43;;;2.27;;
18881;SDS011;9573;50.948;11.600;2023-12-22T02:50:00;14.33;;;2.10;;
18881;SDS011;9573;50.948;11.600;2023-12-22T02:52:27;20.80;;;2.67;;
18881;SDS011;9573;50.948;11.600;2023-12-22T02:54:54;15.93;;;2.20;;
18881;SDS011;9573;50.948;11.600;2023-12-22T02:57:22;16.23;;;2.63;;
18881;SDS011;9573;50.948;11.600;2023-12-22T02:59:50;20.27;;;2.53;;
18881;SDS011;9573;50.948;11.600;2023-12-22T03:02:17;20.37;;;2.70;;
18881;SDS011;9573;50.948;11.600;2023-12-22T03:04:44;16.13;;;2.60;;
18881;SDS011;9573;50.948;11.600;2023-12-22T03:07:12;16.97;;;2.50;;
18881;SDS011;9573;50.948;11.600;2023-12-22T03:09:39;16.30;;;2.67;;
18881;SDS011;9573;50.948;11.600;2023-12-22T03:12:08;19.10;;;2.90;;
18881;SDS011;9573;50.948;11.600;2023-12-22T03:14:37;11.80;;;2.30;;
18881;SDS011;9573;50.948;11.600;2023-12-22T03:17:05;19.60;;;2.60;;
18881;SDS011;9573;50.948;11.600;2023-12-22T03:19:33;6.20;;;1.47;;
18881;SDS011;9573;50.948;11.600;2023-12-22T03:22:00;12.63;;;2.30;;
18881;SDS011;9573;50.948;11.600;2023-12-22T03:24:27;20.57;;;2.70;;
18881;SDS011;9573;50.948;11.600;2023-12-22T03:26:54;6.27;;;1.27;;
18881;SDS011;9573;50.948;11.600;2023-12-22T03:29:21;16.20;;;2.30;;
18881;SDS011;9573;50.948;11.600;2023-12-22T03:31:50;10.37;;;2.10;;
18881;SDS011;9573;50.948;11.600;2023-12-22T03:34:17;8.53;;;1.47;;
18881;SDS011;9573;50.948;11.600;2023-12-22T03:36:44;16.37;;;2.10;;
18881;SDS011;9573;50.948;11.600;2023-12-22T03:39:13;12.00;;;1.67;;
18881;SDS011;9573;50.948;11.600;2023-12-22T03:41:40;8.17;;;1.17;;
18881;SDS011;9573;50.948;11.600;2023-12-22T03:44:08;8.77;;;1.80;;
18881;SDS011;9573;50.948;11.600;2023-12-22T03:46:35;5.37;;;1.13;;
18881;SDS011;9573;50.948;11.600;2023-12-22T03:49:03;10.20;;;2.10;;
18881;SDS011;9573;50.948;11.600;2023-12-22T03:51:30;12.63;;;1.70;;
18881;SDS011;9573;50.948;11.600;2023-12-22T03:53:57;2.53;;;1.03;;
18881;SDS011;9573;50.948;11.600;2023-12-22T03:56:25;12.17;;;2.17;;
18881;SDS011;9573;50.948;11.600;2023-12-22T03:58:52;7.03;;;1.27;;
18881;SDS011;9573;50.948;11.600;2023-12-22T04:01:19;6.47;;;1.13;;
18881;SDS011;9573;50.948;11.600;2023-12-22T04:03:46;4.40;;;1.27;;
18881;SDS011;9573;50.948;11.600;2023-12-22T04:06:15;16.83;;;2.00;;
18881;SDS011;9573;50.948;11.600;2023-12-22T04:08:42;5.93;;;1.17;;
18881;SDS011;9573;50.948;11.600;2023-12-22T04:11:09;10.10;;;1.97;;
18881;SDS011;9573;50.948;11.600;2023-12-22T04:13:36;0.47;;;0.30;;
18881;SDS011;9573;50.948;11.600;2023-12-22T04:16:03;3.80;;;0.60;;
18881;SDS011;9573;50.948;11.600;2023-12-22T04:18:31;9.37;;;1.43;;
18881;SDS011;9573;50.948;11.600;2023-12-22T04:20:58;4.97;;;1.10;;
18881;SDS011;9573;50.948;11.600;2023-12-22T04:23:27;13.13;;;2.20;;
18881;SDS011;9573;50.948;11.600;2023-12-22T04:25:54;1.37;;;0.70;;
18881;SDS011;9573;50.948;11.600;2023-12-22T04:28:22;7.27;;;1.07;;
18881;SDS011;9573;50.948;11.600;2023-12-22T04:30:49;11.00;;;1.27;;
18881;SDS011;9573;50.948;11.600;2023-12-22T04:33:16;1.67;;;0.60;;
18881;SDS011;9573;50.948;11.600;2023-12-22T04:35:43;4.77;;;1.17;;
18881;SDS011;9573;50.948;11.600;2023-12-22T04:38:10;2.33;;;0.77;;
18881;SDS011;9573;50.948;11.600;2023-12-22T04:40:39;5.57;;;1.10;;
18881;SDS011;9573;50.948;11.600;2023-12-22T04:43:06;5.40;;;0.83;;
18881;SDS011;9573;50.948;11.600;2023-12-22T04:45:33;1.37;;;0.67;;
18881;SDS011;9573;50.948;11.600;2023-12-22T04:48:00;6.10;;;1.23;;
18881;SDS011;9573;50.948;11.600;2023-12-22T04:50:27;5.37;;;1.37;;
18881;SDS011;9573;50.948;11.600;2023-12-22T04:52:54;6.87;;;0.97;;
18881;SDS011;9573;50.948;11.600;2023-12-22T04:55:21;3.37;;;0.63;;
18881;SDS011;9573;50.948;11.600;2023-12-22T04:57:50;8.27;;;1.20;;
18881;SDS011;9573;50.948;11.600;2023-12-22T05:00:17;6.10;;;1.10;;
18881;SDS011;9573;50.948;11.600;2023-12-22T05:02:44;5.90;;;1.33;;
18881;SDS011;9573;50.948;11.600;2023-12-22T05:05:12;10.50;;;1.33;;
18881;SDS011;9573;50.948;11.600;2023-12-22T05:07:39;6.10;;;1.30;;
18881;SDS011;9573;50.948;11.600;2023-12-22T05:10:06;8.07;;;1.20;;
18881;SDS011;9573;50.948;11.600;2023-12-22T05:12:34;6.83;;;1.53;;
18881;SDS011;9573;50.948;11.600;2023-12-22T05:15:03;13.43;;;1.83;;
18881;SDS011;9573;50.948;11.600;2023-12-22T05:17:31;7.63;;;1.70;;
18881;SDS011;9573;50.948;11.600;2023-12-22T05:19:59;16.57;;;1.77;;
18881;SDS011;9573;50.948;11.600;2023-12-22T05:22:26;6.70;;;1.47;;
18881;SDS011;9573;50.948;11.600;2023-12-22T05:24:55;11.13;;;1.70;;
18881;SDS011;9573;50.948;11.600;2023-12-22T05:27:23;14.53;;;1.70;;
18881;SDS011;9573;50.948;11.600;2023-12-22T05:29:53;10.13;;;1.37;;
18881;SDS011;9573;50.948;11.600;2023-12-22T05:32:21;14.93;;;2.50;;
18881;SDS011;9573;50.948;11.600;2023-12-22T05:34:48;8.40;;;1.83;;
18881;SDS011;9573;50.948;11.600;2023-12-22T05:37:15;17.63;;;2.37;;
18881;SDS011;9573;50.948;11.600;2023-12-22T05:39:43;13.63;;;2.03;;
18881;SDS011;9573;50.948;11.600;2023-12-22T05:42:10;12.57;;;1.97;;
18881;SDS011;9573;50.948;11.600;2023-12-22T05:44:37;10.60;;;2.07;;
18881;SDS011;9573;50.948;11.600;2023-12-22T05:47:04;10.67;;;2.10;;
18881;SDS011;9573;50.948;11.600;2023-12-22T05:49:33;14.13;;;2.40;;
18881;SDS011;9573;50.948;11.600;2023-12-22T05:52:00;12.50;;;1.60;;
18881;SDS011;9573;50.948;11.600;2023-12-22T05:54:27;9.73;;;1.80;;
18881;SDS011;9573;50.948;11.600;2023-12-22T05:56:55;10.40;;;1.70;;
18881;SDS011;9573;50.948;11.600;2023-12-22T05:59:22;12.17;;;2.13;;
18881;SDS011;9573;50.948;11.600;2023-12-22T06:01:52;17.40;;;2.37;;
18881;SDS011;9573;50.948;11.600;2023-12-22T06:04:20;11.53;;;2.40;;
18881;SDS011;9573;50.948;11.600;2023-12-22T06:06:48;14.50;;;1.97;;
18881;SDS011;9573;50.948;11.600;2023-12-22T06:09:15;21.47;;;2.87;;
18881;SDS011;9573;50.948;11.600;2023-12-22T06:11:43;10.43;;;2.00;;
18881;SDS011;9573;50.948;11.600;2023-12-22T06:14:10;13.83;;;2.17;;
18881;SDS011;9573;50.948;11.600;2023-12-22T06:16:38;13.77;;;2.33;;
18881;SDS011;9573;50.948;11.600;2023-12-22T06:19:05;13.00;;;2.20;;
18881;SDS011;9573;50.948;11.600;2023-12-22T06:21:33;14.63;;;2.53;;
18881;SDS011;9573;50.948;11.600;2023-12-22T06:24:05;10.77;;;2.13;;
18881;SDS011;9573;50.948;11.600;2023-12-22T06:26:36;8.57;;;1.90;;
18881;SDS011;9573;50.948;11.600;2023-12-22T06:29:05;10.53;;;2.03;;
18881;SDS011;9573;50.948;11.600;2023-12-22T06:31:35;7.73;;;1.90;;
18881;SDS011;9573;50.948;11.600;2023-12-22T06:34:43;2.33;;;1.20;;
18881;SDS011;9573;50.948;11.600;2023-12-22T06:37:10;13.50;;;2.17;;
18881;SDS011;9573;50.948;11.600;2023-12-22T06:39:40;13.77;;;2.77;;
18881;SDS011;9573;50.948;11.600;2023-12-22T06:42:17;14.90;;;2.80;;
18881;SDS011;9573;50.948;11.600;2023-12-22T06:44:55;11.77;;;2.40;;
18881;SDS011;9573;50.948;11.600;2023-12-22T06:47:22;12.60;;;2.10;;
18881;SDS011;9573;50.948;11.600;2023-12-22T06:49:55;9.07;;;2.20;;
18881;SDS011;9573;50.948;11.600;2023-12-22T06:52:36;8.80;;;1.77;;
18881;SDS011;9573;50.948;11.600;2023-12-22T06:55:14;13.17;;;3.47;;
18881;SDS011;9573;50.948;11.600;2023-12-22T06:57:47;26.83;;;8.63;;
18881;SDS011;9573;50.948;11.600;2023-12-22T07:00:30;22.87;;;6.17;;
18881;SDS011;9573;50.948;11.600;2023-12-22T07:03:24;13.73;;;2.73;;
18881;SDS011;9573;50.948;11.600;2023-12-22T07:06:02;4.40;;;1.70;;
18881;SDS011;9573;50.948;11.600;2023-12-22T07:08:39;2.30;;;1.20;;
18881;SDS011;9573;50.948;11.600;2023-12-22T07:11:50;3.30;;;0.77;;
18881;SDS011;9573;50.948;11.600;2023-12-22T07:14:21;2.10;;;0.87;;
18881;SDS011;9573;50.948;11.600;2023-12-22T07:16:54;5.70;;;1.23;;
18881;SDS011;9573;50.948;11.600;2023-12-22T07:19:31;3.43;;;1.40;;
18881;SDS011;9573;50.948;11.600;2023-12-22T07:22:01;2.43;;;1.00;;
18881;SDS011;9573;50.948;11.600;2023-12-22T07:24:29;4.67;;;1.43;;
18881;SDS011;9573;50.948;11.600;2023-12-22T07:27:00;1.60;;;0.90;;
18881;SDS011;9573;50.948;11.600;2023-12-22T07:29:29;11.63;;;2.37;;
18881;SDS011;9573;50.948;11.600;2023-12-22T07:31:59;1.57;;;1.10;;
18881;SDS011;9573;50.948;11.600;2023-12-22T07:34:26;4.47;;;1.63;;
18881;SDS011;9573;50.948;11.600;2023-12-22T07:36:56;3.80;;;1.23;;
18881;SDS011;9573;50.948;11.600;2023-12-22T07:39:23;10.57;;;2.87;;
18881;SDS011;9573;50.948;11.600;2023-12-22T07:41:58;9.37;;;2.30;;
18881;SDS011;9573;50.948;11.600;2023-12-22T07:44:32;3.10;;;1.23;;
18881;SDS011;9573;50.948;11.600;2023-12-22T07:47:05;7.77;;;2.30;;
18881;SDS011;9573;50.948;11.600;2023-12-22T07:49:34;7.83;;;1.00;;
18881;SDS011;9573;50.948;11.600;2023-12-22T07:52:01;6.37;;;2.13;;
18881;SDS011;9573;50.948;11.600;2023-12-22T07:54:31;6.43;;;1.17;;
18881;SDS011;9573;50.948;11.600;2023-12-22T07:57:06;5.60;;;1.63;;
18881;SDS011;9573;50.948;11.600;2023-12-22T07:59:51;0.83;;;0.80;;
18881;SDS011;9573;50.948;11.600;2023-12-22T08:02:24;3.47;;;0.73;;
18881;SDS011;9573;50.948;11.600;2023-12-22T08:04:51;6.77;;;1.73;;
18881;SDS011;9573;50.948;11.600;2023-12-22T08:07:27;6.20;;;1.40;;
18881;SDS011;9573;50.948;11.600;2023-12-22T08:10:00;9.23;;;1.83;;
18881;SDS011;9573;50.948;11.600;2023-12-22T08:12:29;2.30;;;0.50;;
18881;SDS011;9573;50.948;11.600;2023-12-22T08:14:57;8.30;;;1.30;;
18881;SDS011;9573;50.948;11.600;2023-12-22T08:17:24;10.50;;;1.50;;
18881;SDS011;9573;50.948;11.600;2023-12-22T08:19:51;8.77;;;1.63;;
18881;SDS011;9573;50.948;11.600;2023-12-22T08:22:18;8.20;;;1.60;;
18881;SDS011;9573;50.948;11.600;2023-12-22T08:24:47;11.40;;;1.63;;
18881;SDS011;9573;50.948;11.600;2023-12-22T08:27:14;6.47;;;1.20;;
18881;SDS011;9573;50.948;11.600;2023-12-22T08:29:43;10.27;;;1.97;;
18881;SDS011;9573;50.948;11.600;2023-12-22T08:32:10;15.23;;;5.23;;
18881;SDS011;9573;50.948;11.600;2023-12-22T08:34:37;12.73;;;2.37;;
18881;SDS011;9573;50.948;11.600;2023-12-22T08:37:05;6.33;;;1.60;;
18881;SDS011;9573;50.948;11.600;2023-12-22T08:39:32;11.77;;;2.43;;
18881;SDS011;9573;50.948;11.600;2023-12-22T08:41:59;6.80;;;2.03;;
18881;SDS011;9573;50.948;11.600;2023-12-22T08:44:26;6.70;;;1.30;;
18881;SDS011;9573;50.948;11.600;2023-12-22T08:46:54;5.50;;;0.87;;
18881;SDS011;9573;50.948;11.600;2023-12-22T08:49:22;6.03;;;1.33;;
18881;SDS011;9573;50.948;11.600;2023-12-22T08:51:49;8.67;;;1.77;;
18881;SDS011;9573;50.948;11.600;2023-12-22T08:54:16;10.37;;;2.10;;
18881;SDS011;9573;50.948;11.600;2023-12-22T08:56:43;21.70;;;4.00;;
18881;SDS011;9573;50.948;11.600;2023-12-22T08:59:10;8.37;;;1.77;;
18881;SDS011;9573;50.948;11.600;2023-12-22T09:01:38;17.63;;;2.73;;
18881;SDS011;9573;50.948;11.600;2023-12-22T09:04:07;8.33;;;1.73;;
18881;SDS011;9573;50.948;11.600;2023-12-22T09:06:37;10.90;;;2.07;;
18881;SDS011;9573;50.948;11.600;2023-12-22T09:09:04;13.77;;;2.83;;
18881;SDS011;9573;50.948;11.600;2023-12-22T09:11:32;14.53;;;1.67;;
18881;SDS011;9573;50.948;11.600;2023-12-22T09:14:00;14.17;;;1.83;;
18881;SDS011;9573;50.948;11.600;2023-12-22T09:16:27;5.23;;;1.50;;
18881;SDS011;9573;50.948;11.600;2023-12-22T09:18:54;8.60;;;1.93;;
18881;SDS011;9573;50.948;11.600;2023-12-22T09:21:23;16.70;;;3.60;;
18881;SDS011;9573;50.948;11.600;2023-12-22T09:23:51;9.73;;;1.70;;
18881;SDS011;9573;50.948;11.600;2023-12-22T09:26:19;13.90;;;2.53;;
18881;SDS011;9573;50.948;11.600;2023-12-22T09:28:46;10.30;;;2.80;;
18881;SDS011;9573;50.948;11.600;2023-12-22T09:31:14;10.07;;;2.13;;
18881;SDS011;9573;50.948;11.600;2023-12-22T09:33:42;11.13;;;2.90;;
18881;SDS011;9573;50.948;11.600;2023-12-22T09:36:09;9.37;;;2.10;;
18881;SDS011;9573;50.948;11.600;2023-12-22T09:38:38;13.37;;;1.93;;
18881;SDS011;9573;50.948;11.600;2023-12-22T09:41:06;6.67;;;2.03;;
18881;SDS011;9573;50.948;11.600;2023-12-22T09:43:35;9.37;;;1.87;;
18881;SDS011;9573;50.948;11.600;2023-12-22T09:46:03;10.10;;;1.73;;
18881;SDS011;9573;50.948;11.600;2023-12-22T09:48:32;9.17;;;1.17;;
18881;SDS011;9573;50.948;11.600;2023-12-22T09:51:01;10.67;;;2.87;;
18881;SDS011;9573;50.948;11.600;2023-12-22T09:53:29;14.30;;;1.87;;
18881;SDS011;9573;50.948;11.600;2023-12-22T09:55:59;7.97;;;1.73;;
18881;SDS011;9573;50.948;11.600;2023-12-22T09:58:27;6.40;;;1.20;;
18881;SDS011;9573;50.948;11.600;2023-12-22T10:00:55;5.97;;;0.93;;
18881;SDS011;9573;50.948;11.600;2023-12-22T10:03:25;13.20;;;2.20;;
18881;SDS011;9573;50.948;11.600;2023-12-22T10:05:53;12.87;;;2.17;;
18881;SDS011;9573;50.948;11.600;2023-12-22T10:08:21;6.87;;;1.20;;
18881;SDS011;9573;50.948;11.600;2023-12-22T10:10:49;9.90;;;1.77;;
18881;SDS011;9573;50.948;11.600;2023-12-22T10:13:19;3.93;;;1.20;;
18881;SDS011;9573;50.948;11.600;2023-12-22T10:15:47;9.83;;;2.17;;
18881;SDS011;9573;50.948;11.600;2023-12-22T10:18:15;6.70;;;1.60;;
18881;SDS011;9573;50.948;11.600;2023-12-22T10:20:42;16.37;;;2.50;;
18881;SDS011;9573;50.948;11.600;2023-12-22T10:23:11;12.10;;;1.43;;
18881;SDS011;9573;50.948;11.600;2023-12-22T10:25:39;20.30;;;2.50;;
18881;SDS011;9573;50.948;11.600;2023-12-22T10:28:09;13.73;;;1.90;;
18881;SDS011;9573;50.948;11.600;2023-12-22T10:30:41;4.80;;;1.53;;
18881;SDS011;9573;50.948;11.600;2023-12-22T10:33:11;11.23;;;2.43;;
18881;SDS011;9573;50.948;11.600;2023-12-22T10:35:38;17.43;;;2.37;;
18881;SDS011;9573;50.948;11.600;2023-12-22T10:38:07;8.57;;;1.73;;
18881;SDS011;9573;50.948;11.600;2023-12-22T10:40:36;9.00;;;1.63;;
18881;SDS011;9573;50.948;11.600;2023-12-22T10:43:04;9.37;;;2.57;;
18881;SDS011;9573;50.948;11.600;2023-12-22T10:45:31;13.80;;;2.80;;
18881;SDS011;9573;50.948;11.600;2023-12-22T10:48:00;7.03;;;1.90;;
18881;SDS011;9573;50.948;11.600;2023-12-22T10:50:32;11.70;;;1.90;;
18881;SDS011;9573;50.948;11.600;2023-12-22T10:52:59;9.70;;;1.90;;
18881;SDS011;9573;50.948;11.600;2023-12-22T10:55:27;14.23;;;1.90;;
18881;SDS011;9573;50.948;11.600;2023-12-22T10:57:54;8.33;;;1.57;;
18881;SDS011;9573;50.948;11.600;2023-12-22T11:00:21;6.53;;;1.83;;
18881;SDS011;9573;50.948;11.600;2023-12-22T11:02:54;5.43;;;1.90;;
18881;SDS011;9573;50.948;11.600;2023-12-22T11:05:29;12.23;;;2.60;;
18881;SDS011;9573;50.948;11.600;2023-12-22T11:07:59;6.53;;;1.50;;
18881;SDS011;9573;50.948;11.600;2023-12-22T11:10:27;11.60;;;2.60;;
18881;SDS011;9573;50.948;11.600;2023-12-22T11:12:57;4.43;;;1.07;;
18881;SDS011;9573;50.948;11.600;2023-12-22T11:15:24;13.73;;;2.00;;
18881;SDS011;9573;50.948;11.600;2023-12-22T11:17:53;8.57;;;1.27;;
18881;SDS011;9573;50.948;11.600;2023-12-22T11:20:24;4.33;;;0.97;;
18881;SDS011;9573;50.948;11.600;2023-12-22T11:22:53;10.33;;;2.10;;
18881;SDS011;9573;50.948;11.600;2023-12-22T11:25:23;8.73;;;1.97;;
18881;SDS011;9573;50.948;11.600;2023-12-22T11:27:52;13.80;;;2.67;;
18881;SDS011;9573;50.948;11.600;2023-12-22T11:30:20;21.63;;;4.70;;
18881;SDS011;9573;50.948;11.600;2023-12-22T11:32:49;7.63;;;2.00;;
18881;SDS011;9573;50.948;11.600;2023-12-22T11:35:16;12.37;;;2.67;;
18881;SDS011;9573;50.948;11.600;2023-12-22T11:37:45;4.53;;;1.70;;
18881;SDS011;9573;50.948;11.600;2023-12-22T11:40:13;12.07;;;2.10;;
18881;SDS011;9573;50.948;11.600;2023-12-22T11:42:41;12.93;;;2.20;;
18881;SDS011;9573;50.948;11.600;2023-12-22T11:45:10;16.13;;;3.07;;
18881;SDS011;9573;50.948;11.600;2023-12-22T11:47:40;17.30;;;3.17;;
18881;SDS011;9573;50.948;11.600;2023-12-22T11:50:08;12.03;;;2.30;;
18881;SDS011;9573;50.948;11.600;2023-12-22T11:52:36;5.23;;;1.77;;
18881;SDS011;9573;50.948;11.600;2023-12-22T11:55:05;12.50;;;1.67;;
18881;SDS011;9573;50.948;11.600;2023-12-22T11:57:34;5.00;;;1.33;;
18881;SDS011;9573;50.948;11.600;2023-12-22T12:00:05;9.53;;;2.23;;
18881;SDS011;9573;50.948;11.600;2023-12-22T12:02:34;3.60;;;1.23;;
18881;SDS011;9573;50.948;11.600;2023-12-22T12:05:03;5.70;;;1.27;;
18881;SDS011;9573;50.948;11.600;2023-12-22T12:07:38;6.07;;;1.70;;
18881;SDS011;9573;50.948;11.600;2023-12-22T12:10:10;4.17;;;1.03;;
18881;SDS011;9573;50.948;11.600;2023-12-22T12:12:39;4.73;;;1.30;;
18881;SDS011;9573;50.948;11.600;2023-12-22T12:15:07;4.17;;;1.10;;
18881;SDS011;9573;50.948;11.600;2023-12-22T12:17:39;3.27;;;0.97;;
18881;SDS011;9573;50.948;11.600;2023-12-22T12:20:09;1.57;;;0.77;;
18881;SDS011;9573;50.948;11.600;2023-12-22T12:22:37;1.70;;;0.60;;
18881;SDS011;9573;50.948;11.600;2023-12-22T12:25:08;4.50;;;1.40;;
18881;SDS011;9573;50.948;11.600;2023-12-22T12:27:37;1.90;;;0.87;;
18881;SDS011;9573;50.948;11.600;2023-12-22T12:30:10;3.57;;;1.10;;
18881;SDS011;9573;50.948;11.600;2023-12-22T12:32:40;3.63;;;1.50;;
18881;SDS011;9573;50.948;11.600;2023-12-22T12:35:10;3.67;;;1.27;;
18881;SDS011;9573;50.948;11.600;2023-12-22T12:37:37;1.13;;;0.83;;
18881;SDS011;9573;50.948;11.600;2023-12-22T12:40:06;3.23;;;1.00;;
18881;SDS011;9573;50.948;11.600;2023-12-22T12:42:36;1.53;;;0.97;;
18881;SDS011;9573;50.948;11.600;2023-12-22T12:45:04;5.40;;;1.40;;
18881;SDS011;9573;50.948;11.600;2023-12-22T12:47:33;3.43;;;1.00;;
18881;SDS011;9573;50.948;11.600;2023-12-22T12:50:00;4.73;;;1.00;;
18881;SDS011;9573;50.948;11.600;2023-12-22T12:52:29;6.03;;;1.10;;
18881;SDS011;9573;50.948;11.600;2023-12-22T12:54:56;7.00;;;1.27;;
18881;SDS011;9573;50.948;11.600;2023-12-22T12:57:25;8.60;;;1.43;;
18881;SDS011;9573;50.948;11.600;2023-12-22T12:59:54;3.73;;;1.43;;
18881;SDS011;9573;50.948;11.600;2023-12-22T13:02:21;3.37;;;1.57;;
18881;SDS011;9573;50.948;11.600;2023-12-22T13:04:49;2.50;;;1.13;;
18881;SDS011;9573;50.948;11.600;2023-12-22T13:07:25;4.77;;;1.20;;
18881;SDS011;9573;50.948;11.600;2023-12-22T13:09:52;4.07;;;1.43;;
18881;SDS011;9573;50.948;11.600;2023-12-22T13:12:22;2.87;;;1.27;;
18881;SDS011;9573;50.948;11.600;2023-12-22T13:14:50;6.53;;;1.60;;
18881;SDS011;9573;50.948;11.600;2023-12-22T13:17:19;5.23;;;1.47;;
18881;SDS011;9573;50.948;11.600;2023-12-22T13:19:46;2.20;;;0.73;;
18881;SDS011;9573;50.948;11.600;2023-12-22T13:22:15;3.40;;;1.10;;
18881;SDS011;9573;50.948;11.600;2023-12-22T13:24:43;6.07;;;1.53;;
18881;SDS011;9573;50.948;11.600;2023-12-22T13:27:25;2.20;;;1.20;;
18881;SDS011;9573;50.948;11.600;2023-12-22T13:29:55;3.13;;;1.60;;
18881;SDS011;9573;50.948;11.600;2023-12-22T13:32:23;6.67;;;1.60;;
18881;SDS011;9573;50.948;11.600;2023-12-22T13:34:51;3.77;;;1.30;;
18881;SDS011;9573;50.948;11.600;2023-12-22T13:37:19;6.50;;;1.67;;
18881;SDS011;9573;50.948;11.600;2023-12-22T13:39:47;6.57;;;1.00;;
18881;SDS011;9573;50.948;11.600;2023-12-22T13:42:16;4.30;;;1.40;;
18881;SDS011;9573;50.948;11.600;2023-12-22T13:44:45;4.10;;;1.20;;
18881;SDS011;9573;50.948;11.600;2023-12-22T13:47:15;4.57;;;1.17;;
18881;SDS011;9573;50.948;11.600;2023-12-22T13:49:44;4.63;;;1.40;;
18881;SDS011;9573;50.948;11.600;2023-12-22T13:52:24;6.57;;;1.60;;
18881;SDS011;9573;50.948;11.600;2023-12-22T13:54:53;8.23;;;1.60;;
18881;SDS011;9573;50.948;11.600;2023-12-22T13:57:21;4.73;;;1.40;;
18881;SDS011;9573;50.948;11.600;2023-12-22T13:59:49;2.93;;;1.20;;
18881;SDS011;9573;50.948;11.600;2023-12-22T14:02:19;4.13;;;1.27;;
18881;SDS011;9573;50.948;11.600;2023-12-22T14:04:49;6.37;;;1.43;;
18881;SDS011;9573;50.948;11.600;2023-12-22T14:07:17;4.37;;;1.37;;
18881;SDS011;9573;50.948;11.600;2023-12-22T14:09:44;1.87;;;1.03;;
18881;SDS011;9573;50.948;11.600;2023-12-22T14:12:11;2.03;;;1.00;;
18881;SDS011;9573;50.948;11.600;2023-12-22T14:14:38;4.43;;;1.20;;
18881;SDS011;9573;50.948;11.600;2023-12-22T14:17:05;4.83;;;1.43;;
18881;SDS011;9573;50.948;11.600;2023-12-22T14:19:32;2.83;;;1.30;;
18881;SDS011;9573;50.948;11.600;2023-12-22T14:22:01;2.83;;;0.93;;
18881;SDS011;9573;50.948;11.600;2023-12-22T14:24:28;7.10;;;1.67;;
18881;SDS011;9573;50.948;11.600;2023-12-22T14:26:55;4.83;;;1.60;;
18881;SDS011;9573;50.948;11.600;2023-12-22T14:29:23;4.30;;;1.20;;
18881;SDS011;9573;50.948;11.600;2023-12-22T14:31:50;2.53;;;0.73;;
18881;SDS011;9573;50.948;11.600;2023-12-22T14:34:18;1.97;;;1.20;;
18881;SDS011;9573;50.948;11.600;2023-12-22T14:36:45;3.17;;;1.13;;
18881;SDS011;9573;50.948;11.600;2023-12-22T14:39:13;1.30;;;1.20;;
18881;SDS011;9573;50.948;11.600;2023-12-22T14:41:41;2.10;;;1.23;;
18881;SDS011;9573;50.948;11.600;2023-12-22T14:44:08;3.40;;;1.23;;
18881;SDS011;9573;50.948;11.600;2023-12-22T14:46:38;3.90;;;1.23;;
18881;SDS011;9573;50.948;11.600;2023-12-22T14:49:06;2.00;;;0.83;;
18881;SDS011;9573;50.948;11.600;2023-12-22T14:51:37;2.47;;;0.90;;